sensor_id;sensor_type;location;lat;lon;timestamp;pressure;altitude;pressure_sealevel;temperature;humidity
73383;BME280;61600;48.126;11.542;2024-03-22T00:01:44;96370.56;;;10.78;70.94
73383;BME280;61600;48.126;11.542;2024-03-22T00:04:09;96369.72;;;10.68;71.25
73383;BME280;61600;48.126;11.542;2024-03-22T00:06:35;96362.88;;;10.55;71.40
73383;BME280;61600;48.126;11.542;2024-03-22T00:09:05;96363.66;;;10.50;71.60
73383;BME280;61600;48.126;11.542;2024-03-22T00:11:31;96378.91;;;10.57;71.29
73383;BME280;61600;48.126;11.542;2024-03-22T00:13:57;96366.66;;;10.49;71.55
73383;BME280;61600;48.126;11.542;2024-03-22T00:16:23;96374.03;;;10.64;71.24
73383;BME280;61600;48.126;11.542;2024-03-22T00:18:49;96369.66;;;10.47;71.48
73383;BME280;61600;48.126;11.542;2024-03-22T00:21:16;96379.91;;;10.35;71.78
73383;BME280;61600;48.126;11.542;2024-03-22T00:23:43;96366.28;;;10.20;71.90
73383;BME280;61600;48.126;11.542;2024-03-22T00:26:08;96359.31;;;10.44;71.36
73383;BME280;61600;48.126;11.542;2024-03-22T00:28:34;96357.13;;;10.46;70.81
73383;BME280;61600;48.126;11.542;2024-03-22T00:30:59;96365.78;;;10.38;71.48
73383;BME280;61600;48.126;11.542;2024-03-22T00:33:25;96359.00;;;10.36;70.97
73383;BME280;61600;48.126;11.542;2024-03-22T00:35:51;96354.81;;;10.13;71.85
73383;BME280;61600;48.126;11.542;2024-03-22T00:38:16;96352.34;;;10.12;71.54
73383;BME280;61600;48.126;11.542;2024-03-22T00:40:42;96358.69;;;10.27;71.52
73383;BME280;61600;48.126;11.542;2024-03-22T00:43:08;96354.59;;;10.25;71.07
73383;BME280;61600;48.126;11.542;2024-03-22T00:45:33;96353.00;;;10.39;70.77
73383;BME280;61600;48.126;11.542;2024-03-22T00:47:59;96346.75;;;10.38;70.54
73383;BME280;61600;48.126;11.542;2024-03-22T00:50:25;96336.16;;;10.37;70.61
73383;BME280;61600;48.126;11.542;2024-03-22T00:52:51;96339.16;;;10.45;70.16
73383;BME280;61600;48.126;11.542;2024-03-22T00:55:18;96334.81;;;10.34;70.42
73383;BME280;61600;48.126;11.542;2024-03-22T00:57:44;96328.25;;;10.30;69.88
73383;BME280;61600;48.126;11.542;2024-03-22T01:00:11;96331.00;;;10.40;70.25
73383;BME280;61600;48.126;11.542;2024-03-22T01:02:37;96328.56;;;10.49;70.11
73383;BME280;61600;48.126;11.542;2024-03-22T01:05:04;96326.41;;;10.51;70.01
73383;BME280;61600;48.126;11.542;2024-03-22T01:07:29;96320.16;;;10.50;69.54
73383;BME280;61600;48.126;11.542;2024-03-22T01:09:55;96323.94;;;10.49;69.80
73383;BME280;61600;48.126;11.542;2024-03-22T01:12:20;96316.88;;;10.48;69.85
73383;BME280;61600;48.126;11.542;2024-03-22T01:14:46;96317.72;;;10.54;69.60
73383;BME280;61600;48.126;11.542;2024-03-22T01:17:11;96327.47;;;10.40;70.05
73383;BME280;61600;48.126;11.542;2024-03-22T01:19:38;96311.94;;;10.35;70.29
73383;BME280;61600;48.126;11.542;2024-03-22T01:22:04;96311.66;;;10.32;69.76
73383;BME280;61600;48.126;11.542;2024-03-22T01:24:29;96304.06;;;10.39;70.00
73383;BME280;61600;48.126;11.542;2024-03-22T01:26:55;96309.75;;;10.27;70.50
73383;BME280;61600;48.126;11.542;2024-03-22T01:29:20;96304.59;;;10.36;70.09
73383;BME280;61600;48.126;11.542;2024-03-22T01:31:47;96304.06;;;10.39;69.95
73383;BME280;61600;48.126;11.542;2024-03-22T01:34:13;96306.22;;;10.32;70.10
73383;BME280;61600;48.126;11.542;2024-03-22T01:36:39;96300.50;;;10.28;69.96
73383;BME280;61600;48.126;11.542;2024-03-22T01:39:05;96302.13;;;10.24;70.19
73383;BME280;61600;48.126;11.542;2024-03-22T01:41:30;96300.19;;;10.15;70.55
73383;BME280;61600;48.126;11.542;2024-03-22T01:43:56;96302.91;;;10.15;70.35
73383;BME280;61600;48.126;11.542;2024-03-22T01:46:21;96296.53;;;9.94;70.83
73383;BME280;61600;48.126;11.542;2024-03-22T01:48:47;96291.88;;;9.89;70.77
73383;BME280;61600;48.126;11.542;2024-03-22T01:51:13;96291.34;;;9.92;71.09
73383;BME280;61600;48.126;11.542;2024-03-22T01:53:39;96288.72;;;10.08;70.70
73383;BME280;61600;48.126;11.542;2024-03-22T01:56:06;96283.56;;;10.11;70.31
73383;BME280;61600;48.126;11.542;2024-03-22T01:58:33;96286.28;;;10.06;70.51
73383;BME280;61600;48.126;11.542;2024-03-22T02:00:58;96292.53;;;10.12;70.47
73383;BME280;61600;48.126;11.542;2024-03-22T02:03:24;96281.44;;;10.18;70.23
73383;BME280;61600;48.126;11.542;2024-03-22T02:05:50;96275.66;;;10.04;69.73
73383;BME280;61600;48.126;11.542;2024-03-22T02:08:15;96281.91;;;10.10;69.95
73383;BME280;61600;48.126;11.542;2024-03-22T02:10:41;96273.00;;;10.15;70.17
73383;BME280;61600;48.126;11.542;2024-03-22T02:13:07;96260.25;;;10.20;69.81
73383;BME280;61600;48.126;11.542;2024-03-22T02:15:32;96259.69;;;10.18;70.07
73383;BME280;61600;48.126;11.542;2024-03-22T02:17:58;96257.72;;;10.14;69.92
73383;BME280;61600;48.126;11.542;2024-03-22T02:20:24;96260.22;;;10.15;69.75
73383;BME280;61600;48.126;11.542;2024-03-22T02:22:51;96265.13;;;10.18;69.71
73383;BME280;61600;48.126;11.542;2024-03-22T02:25:17;96267.56;;;10.15;70.05
73383;BME280;61600;48.126;11.542;2024-03-22T02:27:43;96265.13;;;10.18;69.51
73383;BME280;61600;48.126;11.542;2024-03-22T02:30:09;96259.69;;;10.18;69.86
73383;BME280;61600;48.126;11.542;2024-03-22T02:32:35;96260.44;;;10.09;69.94
73383;BME280;61600;48.126;11.542;2024-03-22T02:35:00;96258.28;;;10.11;69.85
73383;BME280;61600;48.126;11.542;2024-03-22T02:37:26;96252.00;;;10.05;70.13
73383;BME280;61600;48.126;11.542;2024-03-22T02:39:53;96253.63;;;10.01;70.09
73383;BME280;61600;48.126;11.542;2024-03-22T02:42:19;96256.03;;;9.92;69.43
73383;BME280;61600;48.126;11.542;2024-03-22T02:44:44;96250.69;;;9.50;70.63
73383;BME280;61600;48.126;11.542;2024-03-22T02:47:10;96241.00;;;9.75;70.50
73383;BME280;61600;48.126;11.542;2024-03-22T02:49:37;96237.78;;;9.78;70.19
73383;BME280;61600;48.126;11.542;2024-03-22T02:52:02;96248.13;;;9.86;70.11
73383;BME280;61600;48.126;11.542;2024-03-22T02:54:28;96244.88;;;9.84;70.87
73383;BME280;61600;48.126;11.542;2024-03-22T02:56:55;96245.41;;;9.86;70.87
73383;BME280;61600;48.126;11.542;2024-03-22T02:59:21;96238.38;;;9.85;70.31
73383;BME280;61600;48.126;11.542;2024-03-22T03:01:48;96230.72;;;9.82;69.55
73383;BME280;61600;48.126;11.542;2024-03-22T03:04:13;96232.06;;;9.79;70.48
73383;BME280;61600;48.126;11.542;2024-03-22T03:06:39;96232.84;;;9.75;69.96
73383;BME280;61600;48.126;11.542;2024-03-22T03:09:04;96225.81;;;9.74;70.36
73383;BME280;61600;48.126;11.542;2024-03-22T03:11:33;96229.06;;;9.71;70.93
73383;BME280;61600;48.126;11.542;2024-03-22T03:13:58;96221.47;;;9.73;70.83
73383;BME280;61600;48.126;11.542;2024-03-22T03:16:24;96219.84;;;9.77;71.03
73383;BME280;61600;48.126;11.542;2024-03-22T03:18:50;96217.94;;;9.77;70.93
73383;BME280;61600;48.126;11.542;2024-03-22T03:21:15;96216.06;;;9.78;70.60
73383;BME280;61600;48.126;11.542;2024-03-22T03:23:41;96217.41;;;9.80;70.58
73383;BME280;61600;48.126;11.542;2024-03-22T03:26:07;96210.06;;;9.76;70.58
73383;BME280;61600;48.126;11.542;2024-03-22T03:28:32;96212.41;;;9.57;70.09
73383;BME280;61600;48.126;11.542;2024-03-22T03:30:58;96208.63;;;9.58;70.11
73383;BME280;61600;48.126;11.542;2024-03-22T03:33:23;96212.69;;;9.61;70.75
73383;BME280;61600;48.126;11.542;2024-03-22T03:35:49;96205.38;;;9.61;70.68
73383;BME280;61600;48.126;11.542;2024-03-22T03:38:15;96202.91;;;9.54;70.90
73383;BME280;61600;48.126;11.542;2024-03-22T03:40:40;96197.97;;;9.46;71.04
73383;BME280;61600;48.126;11.542;2024-03-22T03:43:06;96193.69;;;9.61;70.65
73383;BME280;61600;48.126;11.542;2024-03-22T03:45:31;96191.78;;;9.56;70.70
73383;BME280;61600;48.126;11.542;2024-03-22T03:47:57;96190.19;;;9.65;70.35
73383;BME280;61600;48.126;11.542;2024-03-22T03:50:22;96188.53;;;9.59;70.49
73383;BME280;61600;48.126;11.542;2024-03-22T03:52:48;96192.81;;;9.50;70.90
73383;BME280;61600;48.126;11.542;2024-03-22T03:55:14;96192.03;;;9.54;70.84
73383;BME280;61600;48.126;11.542;2024-03-22T03:57:40;96190.41;;;9.48;71.16
73383;BME280;61600;48.126;11.542;2024-03-22T04:00:07;96181.19;;;9.54;70.80
73383;BME280;61600;48.126;11.542;2024-03-22T04:02:32;96187.72;;;9.59;70.87
73383;BME280;61600;48.126;11.542;2024-03-22T04:04:58;96185.25;;;9.57;70.85
73383;BME280;61600;48.126;11.542;2024-03-22T04:07:23;96182.00;;;9.55;71.09
73383;BME280;61600;48.126;11.542;2024-03-22T04:09:49;96176.53;;;9.50;70.98
73383;BME280;61600;48.126;11.542;2024-03-22T04:12:15;96177.59;;;9.44;71.45
73383;BME280;61600;48.126;11.542;2024-03-22T04:14:40;96177.88;;;9.42;71.87
73383;BME280;61600;48.126;11.542;2024-03-22T04:17:06;96171.38;;;9.48;71.49
73383;BME280;61600;48.126;11.542;2024-03-22T04:19:31;96169.22;;;9.50;72.08
73383;BME280;61600;48.126;11.542;2024-03-22T04:21:57;96157.53;;;9.50;71.68
73383;BME280;61600;48.126;11.542;2024-03-22T04:24:23;96156.72;;;9.44;72.11
73383;BME280;61600;48.126;11.542;2024-03-22T04:26:48;96154.00;;;9.44;72.44
73383;BME280;61600;48.126;11.542;2024-03-22T04:29:14;96148.56;;;9.44;72.43
73383;BME280;61600;48.126;11.542;2024-03-22T04:31:40;96152.91;;;9.50;72.47
73383;BME280;61600;48.126;11.542;2024-03-22T04:34:05;96159.47;;;9.54;72.12
73383;BME280;61600;48.126;11.542;2024-03-22T04:36:33;96155.16;;;9.69;71.61
73383;BME280;61600;48.126;11.542;2024-03-22T04:38:58;96155.66;;;9.56;72.24
73383;BME280;61600;48.126;11.542;2024-03-22T04:41:24;96151.34;;;9.65;71.83
73383;BME280;61600;48.126;11.542;2024-03-22T04:43:50;96149.94;;;9.57;71.99
73383;BME280;61600;48.126;11.542;2024-03-22T04:46:15;96150.78;;;9.58;72.03
73383;BME280;61600;48.126;11.542;2024-03-22T04:48:41;96161.16;;;9.71;71.63
73383;BME280;61600;48.126;11.542;2024-03-22T04:51:06;96158.66;;;9.64;71.80
73383;BME280;61600;48.126;11.542;2024-03-22T04:53:32;96156.50;;;9.71;71.65
73383;BME280;61600;48.126;11.542;2024-03-22T04:55:59;96160.03;;;9.57;72.18
73383;BME280;61600;48.126;11.542;2024-03-22T04:58:25;96161.38;;;9.64;72.20
73383;BME280;61600;48.126;11.542;2024-03-22T05:00:56;96158.44;;;9.71;71.62
73383;BME280;61600;48.126;11.542;2024-03-22T05:03:22;96163.59;;;9.67;71.74
73383;BME280;61600;48.126;11.542;2024-03-22T05:05:49;96152.69;;;9.62;71.57
73383;BME280;61600;48.126;11.542;2024-03-22T05:08:15;96145.13;;;9.69;71.86
73383;BME280;61600;48.126;11.542;2024-03-22T05:10:40;96150.00;;;9.67;71.76
73383;BME280;61600;48.126;11.542;2024-03-22T05:13:07;96142.13;;;9.66;71.84
73383;BME280;61600;48.126;11.542;2024-03-22T05:15:33;96151.13;;;9.81;71.31
73383;BME280;61600;48.126;11.542;2024-03-22T05:18:00;96144.63;;;9.92;71.17
73383;BME280;61600;48.126;11.542;2024-03-22T05:20:25;96145.97;;;9.90;70.87
73383;BME280;61600;48.126;11.542;2024-03-22T05:22:52;96145.75;;;10.01;70.87
73383;BME280;61600;48.126;11.542;2024-03-22T05:25:19;96147.38;;;10.08;70.77
73383;BME280;61600;48.126;11.542;2024-03-22T05:27:45;96147.63;;;10.01;71.14
73383;BME280;61600;48.126;11.542;2024-03-22T05:30:11;96143.03;;;10.12;70.40
73383;BME280;61600;48.126;11.542;2024-03-22T05:32:38;96148.53;;;10.17;70.23
73383;BME280;61600;48.126;11.542;2024-03-22T05:35:04;96153.69;;;10.18;70.17
73383;BME280;61600;48.126;11.542;2024-03-22T05:37:30;96149.88;;;10.29;69.46
73383;BME280;61600;48.126;11.542;2024-03-22T05:39:56;96153.44;;;10.30;69.12
73383;BME280;61600;48.126;11.542;2024-03-22T05:42:21;96152.34;;;10.31;69.58
73383;BME280;61600;48.126;11.542;2024-03-22T05:44:47;96151.72;;;10.14;70.11
73383;BME280;61600;48.126;11.542;2024-03-22T05:47:15;96140.91;;;10.39;69.19
73383;BME280;61600;48.126;11.542;2024-03-22T05:49:40;96142.81;;;10.33;69.38
73383;BME280;61600;48.126;11.542;2024-03-22T05:52:06;96138.72;;;10.36;69.39
73383;BME280;61600;48.126;11.542;2024-03-22T05:54:36;96136.84;;;10.46;69.04
73383;BME280;61600;48.126;11.542;2024-03-22T05:57:02;96133.31;;;10.41;68.92
73383;BME280;61600;48.126;11.542;2024-03-22T05:59:28;96129.75;;;10.45;69.31
73383;BME280;61600;48.126;11.542;2024-03-22T06:01:53;96123.75;;;10.48;68.67
73383;BME280;61600;48.126;11.542;2024-03-22T06:04:19;96125.97;;;10.51;69.11
73383;BME280;61600;48.126;11.542;2024-03-22T06:06:45;96124.88;;;10.58;68.84
73383;BME280;61600;48.126;11.542;2024-03-22T06:09:11;96128.41;;;10.53;68.75
73383;BME280;61600;48.126;11.542;2024-03-22T06:11:38;96123.78;;;10.43;69.08
73383;BME280;61600;48.126;11.542;2024-03-22T06:14:05;96128.13;;;10.49;68.85
73383;BME280;61600;48.126;11.542;2024-03-22T06:16:30;96133.03;;;10.47;69.01
73383;BME280;61600;48.126;11.542;2024-03-22T06:18:56;96133.03;;;10.47;69.09
73383;BME280;61600;48.126;11.542;2024-03-22T06:21:22;96131.38;;;10.31;69.76
73383;BME280;61600;48.126;11.542;2024-03-22T06:23:50;96129.75;;;10.25;69.87
73383;BME280;61600;48.126;11.542;2024-03-22T06:26:16;96129.75;;;10.15;70.40
73383;BME280;61600;48.126;11.542;2024-03-22T06:28:42;96121.06;;;10.18;70.16
73383;BME280;61600;48.126;11.542;2024-03-22T06:31:08;96121.63;;;10.20;70.35
73383;BME280;61600;48.126;11.542;2024-03-22T06:33:34;96125.41;;;10.14;70.52
73383;BME280;61600;48.126;11.542;2024-03-22T06:35:59;96124.34;;;10.30;70.40
73383;BME280;61600;48.126;11.542;2024-03-22T06:38:25;96122.13;;;10.42;69.35
73383;BME280;61600;48.126;11.542;2024-03-22T06:40:52;96113.44;;;10.35;69.65
73383;BME280;61600;48.126;11.542;2024-03-22T06:43:20;96118.59;;;10.22;70.46
73383;BME280;61600;48.126;11.542;2024-03-22T06:45:45;96109.63;;;10.41;69.94
73383;BME280;61600;48.126;11.542;2024-03-22T06:48:11;96113.72;;;10.44;70.23
73383;BME280;61600;48.126;11.542;2024-03-22T06:50:37;96120.78;;;10.30;70.52
73383;BME280;61600;48.126;11.542;2024-03-22T06:53:02;96112.91;;;10.43;70.38
73383;BME280;61600;48.126;11.542;2024-03-22T06:55:29;96116.72;;;10.47;70.24
73383;BME280;61600;48.126;11.542;2024-03-22T06:57:55;96119.97;;;10.55;70.02
73383;BME280;61600;48.126;11.542;2024-03-22T07:00:21;96117.78;;;10.62;69.39
73383;BME280;61600;48.126;11.542;2024-03-22T07:02:46;96123.22;;;10.72;70.00
73383;BME280;61600;48.126;11.542;2024-03-22T07:05:12;96106.88;;;10.77;69.16
73383;BME280;61600;48.126;11.542;2024-03-22T07:07:39;96121.28;;;10.92;68.84
73383;BME280;61600;48.126;11.542;2024-03-22T07:10:06;96126.44;;;10.84;69.20
73383;BME280;61600;48.126;11.542;2024-03-22T07:12:33;96120.50;;;10.67;69.67
73383;BME280;61600;48.126;11.542;2024-03-22T07:15:02;96119.63;;;10.91;69.61
73383;BME280;61600;48.126;11.542;2024-03-22T07:17:34;96116.06;;;11.06;68.94
73383;BME280;61600;48.126;11.542;2024-03-22T07:20:00;96122.06;;;10.98;68.47
73383;BME280;61600;48.126;11.542;2024-03-22T07:22:25;96112.44;;;11.31;68.06
73383;BME280;61600;48.126;11.542;2024-03-22T07:24:51;96107.56;;;11.28;68.14
73383;BME280;61600;48.126;11.542;2024-03-22T07:27:18;96111.56;;;11.45;67.86
73383;BME280;61600;48.126;11.542;2024-03-22T07:29:44;96102.25;;;11.57;67.50
73383;BME280;61600;48.126;11.542;2024-03-22T07:32:11;96108.03;;;11.45;68.00
73383;BME280;61600;48.126;11.542;2024-03-22T07:34:39;96106.75;;;11.27;68.57
73383;BME280;61600;48.126;11.542;2024-03-22T07:37:05;96112.81;;;11.68;67.71
73383;BME280;61600;48.126;11.542;2024-03-22T07:39:30;96113.06;;;11.82;66.93
73383;BME280;61600;48.126;11.542;2024-03-22T07:41:56;96113.56;;;11.89;66.89
73383;BME280;61600;48.126;11.542;2024-03-22T07:44:21;96115.97;;;11.95;66.98
73383;BME280;61600;48.126;11.542;2024-03-22T07:46:51;96115.69;;;11.97;66.89
73383;BME280;61600;48.126;11.542;2024-03-22T07:49:18;96111.09;;;11.92;66.84
73383;BME280;61600;48.126;11.542;2024-03-22T07:51:43;96111.44;;;12.20;66.22
73383;BME280;61600;48.126;11.542;2024-03-22T07:54:11;96110.38;;;12.16;66.42
73383;BME280;61600;48.126;11.542;2024-03-22T07:56:38;96108.81;;;12.05;66.87
73383;BME280;61600;48.126;11.542;2024-03-22T07:59:04;96102.66;;;12.28;66.17
73383;BME280;61600;48.126;11.542;2024-03-22T08:01:30;96100.69;;;12.38;65.79
73383;BME280;61600;48.126;11.542;2024-03-22T08:03:56;96082.38;;;12.39;65.62
73383;BME280;61600;48.126;11.542;2024-03-22T08:06:22;96095.38;;;12.52;65.24
73383;BME280;61600;48.126;11.542;2024-03-22T08:08:47;96088.31;;;12.75;64.95
73383;BME280;61600;48.126;11.542;2024-03-22T08:11:13;96089.84;;;12.57;65.11
73383;BME280;61600;48.126;11.542;2024-03-22T08:13:39;96082.16;;;12.64;64.36
73383;BME280;61600;48.126;11.542;2024-03-22T08:16:05;96079.72;;;12.63;64.68
73383;BME280;61600;48.126;11.542;2024-03-22T08:18:32;96079.00;;;12.52;64.44
73383;BME280;61600;48.126;11.542;2024-03-22T08:20:59;96083.06;;;12.83;63.34
73383;BME280;61600;48.126;11.542;2024-03-22T08:23:25;96081.22;;;13.02;62.99
73383;BME280;61600;48.126;11.542;2024-03-22T08:25:50;96076.44;;;13.18;62.65
73383;BME280;61600;48.126;11.542;2024-03-22T08:28:16;96075.38;;;13.38;62.25
73383;BME280;61600;48.126;11.542;2024-03-22T08:30:42;96079.25;;;13.56;61.60
73383;BME280;61600;48.126;11.542;2024-03-22T08:33:09;96081.31;;;13.64;61.43
73383;BME280;61600;48.126;11.542;2024-03-22T08:35:35;96076.75;;;13.78;60.57
73383;BME280;61600;48.126;11.542;2024-03-22T08:38:01;96084.00;;;13.87;59.99
73383;BME280;61600;48.126;11.542;2024-03-22T08:40:27;96075.03;;;14.19;59.06
73383;BME280;61600;48.126;11.542;2024-03-22T08:42:55;96077.06;;;14.14;58.93
73383;BME280;61600;48.126;11.542;2024-03-22T08:45:22;96071.03;;;14.30;58.80
73383;BME280;61600;48.126;11.542;2024-03-22T08:47:49;96072.47;;;14.60;58.27
73383;BME280;61600;48.126;11.542;2024-03-22T08:50:16;96069.69;;;14.46;57.68
73383;BME280;61600;48.126;11.542;2024-03-22T08:52:43;96054.88;;;14.34;57.04
73383;BME280;61600;48.126;11.542;2024-03-22T08:55:09;96068.38;;;14.25;57.66
73383;BME280;61600;48.126;11.542;2024-03-22T08:57:36;96068.47;;;14.20;58.15
73383;BME280;61600;48.126;11.542;2024-03-22T09:00:03;96055.00;;;14.42;57.55
73383;BME280;61600;48.126;11.542;2024-03-22T09:02:30;96048.69;;;14.74;57.24
73383;BME280;61600;48.126;11.542;2024-03-22T09:04:55;96045.16;;;14.87;57.15
73383;BME280;61600;48.126;11.542;2024-03-22T09:07:21;96035.03;;;15.02;56.82
73383;BME280;61600;48.126;11.542;2024-03-22T09:09:47;96042.72;;;14.86;57.33
73383;BME280;61600;48.126;11.542;2024-03-22T09:12:13;96043.97;;;15.21;56.52
73383;BME280;61600;48.126;11.542;2024-03-22T09:14:39;96027.91;;;15.41;55.54
73383;BME280;61600;48.126;11.542;2024-03-22T09:17:05;96031.88;;;15.63;55.17
73383;BME280;61600;48.126;11.542;2024-03-22T09:19:32;96033.72;;;15.54;54.95
73383;BME280;61600;48.126;11.542;2024-03-22T09:22:10;96028.22;;;15.67;54.21
73383;BME280;61600;48.126;11.542;2024-03-22T09:24:35;96031.25;;;15.66;53.29
73383;BME280;61600;48.126;11.542;2024-03-22T09:27:04;96028.88;;;15.86;52.17
73383;BME280;61600;48.126;11.542;2024-03-22T09:29:36;96023.41;;;15.86;51.96
73383;BME280;61600;48.126;11.542;2024-03-22T09:32:04;96023.59;;;15.90;51.48
73383;BME280;61600;48.126;11.542;2024-03-22T09:34:30;96017.88;;;16.00;51.64
73383;BME280;61600;48.126;11.542;2024-03-22T09:36:57;96011.38;;;15.60;51.65
73383;BME280;61600;48.126;11.542;2024-03-22T09:39:29;96021.66;;;15.55;52.08
73383;BME280;61600;48.126;11.542;2024-03-22T09:42:05;96011.94;;;15.71;51.24
73383;BME280;61600;48.126;11.542;2024-03-22T09:44:34;96018.50;;;16.19;50.99
73383;BME280;61600;48.126;11.542;2024-03-22T09:47:00;96007.22;;;16.21;50.92
73383;BME280;61600;48.126;11.542;2024-03-22T09:49:30;96008.88;;;16.53;50.30
73383;BME280;61600;48.126;11.542;2024-03-22T09:51:56;96005.59;;;16.20;50.52
73383;BME280;61600;48.126;11.542;2024-03-22T09:54:25;96004.09;;;15.78;50.66
73383;BME280;61600;48.126;11.542;2024-03-22T09:56:54;95989.84;;;15.89;50.34
73383;BME280;61600;48.126;11.542;2024-03-22T09:59:22;95998.78;;;16.39;49.35
73383;BME280;61600;48.126;11.542;2024-03-22T10:01:49;95998.91;;;16.34;49.09
73383;BME280;61600;48.126;11.542;2024-03-22T10:04:16;95996.53;;;16.64;48.81
73383;BME280;61600;48.126;11.542;2024-03-22T10:06:42;95991.75;;;17.17;48.11
73383;BME280;61600;48.126;11.542;2024-03-22T10:09:07;95986.25;;;17.17;48.16
73383;BME280;61600;48.126;11.542;2024-03-22T10:11:34;95992.25;;;17.19;48.08
73383;BME280;61600;48.126;11.542;2024-03-22T10:14:00;95985.13;;;17.18;48.34
73383;BME280;61600;48.126;11.542;2024-03-22T10:16:26;95981.97;;;17.51;47.36
73383;BME280;61600;48.126;11.542;2024-03-22T10:18:51;95984.22;;;17.40;47.32
73383;BME280;61600;48.126;11.542;2024-03-22T10:21:18;95976.09;;;17.35;47.06
73383;BME280;61600;48.126;11.542;2024-03-22T10:23:45;95983.09;;;17.41;47.52
73383;BME280;61600;48.126;11.542;2024-03-22T10:26:13;95981.06;;;17.81;47.06
73383;BME280;61600;48.126;11.542;2024-03-22T10:28:50;95967.00;;;18.08;46.23
73383;BME280;61600;48.126;11.542;2024-03-22T10:31:16;95960.81;;;18.28;46.29
73383;BME280;61600;48.126;11.542;2024-03-22T10:33:46;95950.63;;;18.20;46.47
73383;BME280;61600;48.126;11.542;2024-03-22T10:36:12;95961.59;;;18.55;46.14
73383;BME280;61600;48.126;11.542;2024-03-22T10:38:39;95961.22;;;18.73;45.43
73383;BME280;61600;48.126;11.542;2024-03-22T10:41:06;95948.84;;;18.88;45.55
73383;BME280;61600;48.126;11.542;2024-03-22T10:43:32;95949.69;;;18.80;45.18
73383;BME280;61600;48.126;11.542;2024-03-22T10:46:01;95946.72;;;18.93;45.11
73383;BME280;61600;48.126;11.542;2024-03-22T10:48:30;95945.72;;;18.52;45.20
73383;BME280;61600;48.126;11.542;2024-03-22T10:50:59;95947.66;;;18.60;45.34
73383;BME280;61600;48.126;11.542;2024-03-22T10:53:30;95946.31;;;18.74;45.52
73383;BME280;61600;48.126;11.542;2024-03-22T10:55:58;95936.28;;;18.70;45.20
73383;BME280;61600;48.126;11.542;2024-03-22T10:58:25;95936.34;;;18.90;45.14
73383;BME280;61600;48.126;11.542;2024-03-22T11:00:52;95935.47;;;19.07;44.55
73383;BME280;61600;48.126;11.542;2024-03-22T11:03:22;95932.69;;;18.78;44.55
73383;BME280;61600;48.126;11.542;2024-03-22T11:05:53;95930.41;;;18.80;44.37
73383;BME280;61600;48.126;11.542;2024-03-22T11:08:40;95925.63;;;18.98;44.50
73383;BME280;61600;48.126;11.542;2024-03-22T11:11:10;95923.47;;;18.74;44.76
73383;BME280;61600;48.126;11.542;2024-03-22T11:13:36;95922.97;;;18.08;45.50
73383;BME280;61600;48.126;11.542;2024-03-22T11:16:05;95923.28;;;18.15;45.25
73383;BME280;61600;48.126;11.542;2024-03-22T11:18:32;95913.47;;;18.52;45.09
73383;BME280;61600;48.126;11.542;2024-03-22T11:20:59;95910.25;;;18.88;45.15
73383;BME280;61600;48.126;11.542;2024-03-22T11:23:26;95906.56;;;19.13;44.20
73383;BME280;61600;48.126;11.542;2024-03-22T11:25:52;95891.63;;;19.64;43.71
73383;BME280;61600;48.126;11.542;2024-03-22T11:28:18;95885.50;;;19.38;43.22
73383;BME280;61600;48.126;11.542;2024-03-22T11:30:45;95894.38;;;19.43;43.53
73383;BME280;61600;48.126;11.542;2024-03-22T11:33:14;95888.06;;;19.43;43.65
73383;BME280;61600;48.126;11.542;2024-03-22T11:35:40;95882.00;;;19.91;43.80
73383;BME280;61600;48.126;11.542;2024-03-22T11:38:06;95886.66;;;19.58;43.46
73383;BME280;61600;48.126;11.542;2024-03-22T11:40:34;95866.59;;;20.02;42.73
73383;BME280;61600;48.126;11.542;2024-03-22T11:43:03;95868.13;;;20.32;43.50
73383;BME280;61600;48.126;11.542;2024-03-22T11:45:35;95871.81;;;20.36;42.24
73383;BME280;61600;48.126;11.542;2024-03-22T11:48:05;95862.59;;;20.44;41.95
73383;BME280;61600;48.126;11.542;2024-03-22T11:50:31;95863.28;;;20.29;41.48
73383;BME280;61600;48.126;11.542;2024-03-22T11:52:58;95849.13;;;20.31;42.23
73383;BME280;61600;48.126;11.542;2024-03-22T11:55:27;95839.97;;;20.51;41.42
73383;BME280;61600;48.126;11.542;2024-03-22T11:57:53;95837.94;;;19.62;43.03
73383;BME280;61600;48.126;11.542;2024-03-22T12:00:19;95829.91;;;20.34;42.63
73383;BME280;61600;48.126;11.542;2024-03-22T12:02:45;95828.53;;;20.53;42.51
73383;BME280;61600;48.126;11.542;2024-03-22T12:05:12;95826.00;;;20.03;42.11
73383;BME280;61600;48.126;11.542;2024-03-22T12:07:37;95828.03;;;20.26;42.38
73383;BME280;61600;48.126;11.542;2024-03-22T12:10:07;95815.41;;;20.37;41.83
73383;BME280;61600;48.126;11.542;2024-03-22T12:12:33;95822.78;;;20.33;41.62
73383;BME280;61600;48.126;11.542;2024-03-22T12:14:59;95815.94;;;19.86;42.22
73383;BME280;61600;48.126;11.542;2024-03-22T12:17:24;95811.94;;;19.95;42.46
73383;BME280;61600;48.126;11.542;2024-03-22T12:19:52;95800.41;;;20.26;42.80
73383;BME280;61600;48.126;11.542;2024-03-22T12:22:18;95805.91;;;20.14;42.18
73383;BME280;61600;48.126;11.542;2024-03-22T12:24:44;95798.59;;;20.42;41.97
73383;BME280;61600;48.126;11.542;2024-03-22T12:27:11;95797.59;;;20.14;42.02
73383;BME280;61600;48.126;11.542;2024-03-22T12:29:38;95781.78;;;20.60;42.37
73383;BME280;61600;48.126;11.542;2024-03-22T12:32:04;95789.06;;;20.40;42.74
73383;BME280;61600;48.126;11.542;2024-03-22T12:34:30;95786.31;;;20.07;42.55
73383;BME280;61600;48.126;11.542;2024-03-22T12:36:58;95786.00;;;20.21;42.34
73383;BME280;61600;48.126;11.542;2024-03-22T12:39:24;95770.28;;;20.70;43.20
73383;BME280;61600;48.126;11.542;2024-03-22T12:41:49;95764.25;;;20.80;41.41
73383;BME280;61600;48.126;11.542;2024-03-22T12:44:15;95750.88;;;21.06;41.61
73383;BME280;61600;48.126;11.542;2024-03-22T12:46:41;95755.06;;;20.88;41.12
73383;BME280;61600;48.126;11.542;2024-03-22T12:49:08;95749.78;;;21.35;41.92